Time;durP1;ratioP1;P1;durP2;ratioP2;P2;SDS_P1;SDS_P2;PMS_P1;PMS_P2;Temp;Humidity;BMP_temperature;BMP_pressure;BME280_temperature;BME280_humidity;BME280_pressure;Samples;Min_cycle;Max_cycle;Signal;HPM_P1;HPM_P2
2022/12/27 00:01:44;;;;;;;2.10;2.00;;;;;;;13.27;100.00;96940.44;5051388;28;20068;-37
2022/12/27 00:04:12;;;;;;;2.00;1.90;;;;;;;13.27;100.00;96951.03;5051353;28;20095;-39
2022/12/27 00:06:41;;;;;;;2.03;1.90;;;;;;;13.27;100.00;96946.56;5051753;28;20083;-39
2022/12/27 00:09:09;;;;;;;1.85;1.75;;;;;;;12.86;100.00;96952.34;5050810;28;20556;-39
2022/12/27 00:11:38;;;;;;;2.08;1.98;;;;;;;12.56;100.00;96951.66;5047209;28;20087;-39
2022/12/27 00:14:07;;;;;;;3.45;2.15;;;;;;;12.69;100.00;96957.44;5047916;28;20635;-41
2022/12/27 00:16:37;;;;;;;2.22;2.10;;;;;;;12.67;100.00;96961.22;5048969;28;20076;-39
2022/12/27 00:19:06;;;;;;;4.20;2.20;;;;;;;12.73;100.00;96963.25;5050284;28;20083;-46
2022/12/27 00:21:35;;;;;;;2.00;1.90;;;;;;;12.41;100.00;96964.50;5053625;28;20516;-42
2022/12/27 00:24:04;;;;;;;2.38;2.17;;;;;;;12.46;100.00;96975.50;5050877;28;20084;-40
2022/12/27 00:26:33;;;;;;;3.13;2.20;;;;;;;12.42;100.00;96971.47;5058421;28;20086;-46
2022/12/27 00:29:01;;;;;;;2.95;2.20;;;;;;;11.40;100.00;96985.13;5056912;28;20156;-46
2022/12/27 00:31:31;;;;;;;2.22;2.13;;;;;;;11.44;100.00;97004.16;5049999;28;20084;-39
2022/12/27 00:34:02;;;;;;;2.08;1.98;;;;;;;11.27;100.00;97007.47;5054234;28;20076;-39
2022/12/27 00:36:31;;;;;;;2.30;2.20;;;;;;;11.25;100.00;97004.97;5061753;28;20088;-40
2022/12/27 00:39:00;;;;;;;3.72;2.35;;;;;;;11.24;100.00;97005.09;5053906;28;20084;-45
2022/12/27 00:41:29;;;;;;;2.38;2.17;;;;;;;11.36;100.00;96998.75;5054803;28;20087;-43
2022/12/27 00:43:57;;;;;;;2.15;2.00;;;;;;;11.38;100.00;97008.16;5057446;28;20091;-43
2022/12/27 00:46:25;;;;;;;2.20;2.10;;;;;;;11.09;100.00;97021.31;5057120;28;20103;-40
2022/12/27 00:48:54;;;;;;;2.90;2.30;;;;;;;11.43;100.00;97013.06;5057575;28;20557;-44
2022/12/27 00:51:25;;;;;;;3.55;2.67;;;;;;;11.33;100.00;97015.69;5051031;28;20096;-41
2022/12/27 00:53:53;;;;;;;2.22;2.13;;;;;;;11.10;100.00;97012.41;5056584;28;20095;-44
2022/12/27 00:56:24;;;;;;;3.35;2.30;;;;;;;11.02;100.00;97017.53;5059467;28;20087;-40
2022/12/27 00:58:54;;;;;;;2.20;2.10;;;;;;;11.19;100.00;97020.50;5055342;28;20083;-40
2022/12/27 01:01:23;;;;;;;2.30;2.20;;;;;;;11.30;100.00;97026.50;5059409;28;20077;-42
2022/12/27 01:03:52;;;;;;;2.33;2.10;;;;;;;11.38;100.00;97031.09;5057882;28;20084;-45
2022/12/27 01:06:22;;;;;;;2.70;2.50;;;;;;;11.25;100.00;97033.16;5056872;28;20077;-39
2022/12/27 01:08:51;;;;;;;4.00;2.38;;;;;;;11.28;100.00;97040.81;5059763;28;20073;-42
2022/12/27 01:11:20;;;;;;;2.33;2.20;;;;;;;11.10;100.00;97045.91;5059951;28;20092;-42
2022/12/27 01:13:48;;;;;;;6.65;2.33;;;;;;;11.08;100.00;97042.53;5057192;28;20513;-42
2022/12/27 01:16:19;;;;;;;3.08;2.10;;;;;;;11.28;100.00;97051.38;5056020;28;20075;-42
2022/12/27 01:18:48;;;;;;;2.83;2.15;;;;;;;11.45;100.00;97052.53;5056505;28;20099;-42
2022/12/27 01:21:18;;;;;;;5.78;2.20;;;;;;;11.21;100.00;97048.44;5054160;28;20080;-38
2022/12/27 01:23:47;;;;;;;3.70;2.40;;;;;;;11.19;100.00;97057.47;5050397;28;20555;-47
2022/12/27 01:26:18;;;;;;;2.53;2.33;;;;;;;11.13;100.00;97056.19;5054646;28;20099;-41
2022/12/27 01:28:47;;;;;;;2.40;2.20;;;;;;;11.16;100.00;97067.31;5053081;28;20091;-39
2022/12/27 01:31:17;;;;;;;4.43;2.60;;;;;;;11.50;100.00;97080.22;5053642;28;20543;-39
2022/12/27 01:33:46;;;;;;;3.42;2.55;;;;;;;11.33;100.00;97080.84;5056733;28;20091;-40
2022/12/27 01:36:23;;;;;;;2.40;2.20;;;;;;;11.14;100.00;97094.81;5051441;28;20087;-43
2022/12/27 01:38:52;;;;;;;2.53;2.22;;;;;;;11.24;100.00;97094.84;5054942;28;20084;-39
2022/12/27 01:44:49;;;;;;;3.33;2.17;;;;;;;11.04;100.00;97100.03;5055304;28;20087;-41
2022/12/27 01:47:21;;;;;;;2.50;2.30;;;;;;;10.87;100.00;97109.44;5057495;28;20148;-38
2022/12/27 01:49:56;;;;;;;2.35;2.15;;;;;;;10.86;100.00;97114.81;5052639;28;20084;-42
2022/12/27 01:52:26;;;;;;;2.10;2.00;;;;;;;10.85;100.00;97113.97;5053847;28;20083;-39
2022/12/27 01:54:58;;;;;;;2.47;2.28;;;;;;;10.87;100.00;97116.47;5054134;28;20072;-45
2022/12/27 01:57:28;;;;;;;2.63;2.30;;;;;;;11.01;100.00;97116.16;5051847;28;20113;-45
2022/12/27 01:59:57;;;;;;;2.50;2.30;;;;;;;10.74;100.00;97113.22;5049409;28;20095;-41
2022/12/27 02:02:25;;;;;;;3.80;2.70;;;;;;;10.80;100.00;97126.72;5049167;28;20139;-41
2022/12/27 02:04:54;;;;;;;2.42;2.22;;;;;;;10.60;100.00;97124.94;5056059;28;20080;-38
2022/12/27 02:07:25;;;;;;;4.20;2.33;;;;;;;10.58;100.00;97132.97;5058591;28;20079;-39
2022/12/27 02:09:56;;;;;;;2.65;2.10;;;;;;;10.77;100.00;97136.69;5050013;28;20099;-40
2022/12/27 02:12:25;;;;;;;2.97;2.20;;;;;;;10.99;100.00;97133.09;5049466;28;20476;-41
2022/12/27 02:14:55;;;;;;;3.08;2.25;;;;;;;11.02;100.00;97138.09;5048272;28;20169;-38
2022/12/27 02:17:26;;;;;;;3.13;2.53;;;;;;;10.75;100.00;97142.09;5054315;28;20103;-39
2022/12/27 02:20:00;;;;;;;2.20;2.00;;;;;;;10.82;100.00;97148.53;5052834;28;20076;-39
2022/12/27 02:26:07;;;;;;;2.10;2.00;;;;;;;10.89;100.00;97162.06;5046792;28;20088;-40
2022/12/27 02:28:51;;;;;;;2.42;2.00;;;;;;;11.12;100.00;97158.31;5038043;28;20089;-45
2022/12/27 02:31:27;;;;;;;3.63;2.30;;;;;;;10.90;100.00;97161.91;5053526;28;20098;-40
2022/12/27 02:33:57;;;;;;;3.90;2.38;;;;;;;11.04;100.00;97154.63;5049143;28;20065;-45
2022/12/27 02:36:28;;;;;;;2.15;2.03;;;;;;;11.02;100.00;97153.94;5051533;28;20150;-38
2022/12/27 02:38:58;;;;;;;2.40;2.22;;;;;;;10.82;100.00;97148.53;5046123;28;20084;-40
2022/12/27 02:55:34;;;;;;;2.45;2.25;;;;;;;10.59;100.00;97162.81;5055138;28;20088;-43
2022/12/27 02:58:19;;;;;;;2.40;2.22;;;;;;;10.76;100.00;97156.97;5048661;28;20706;-48
2022/12/27 03:03:55;;;;;;;2.30;2.20;;;;;;;11.11;100.00;97164.56;5034088;28;20080;-45
2022/12/27 03:06:48;;;;;;;2.92;2.60;;;;;;;10.89;100.00;97160.25;5053741;28;20088;-41
2022/12/27 03:18:17;;;;;;;2.60;2.40;;;;;;;10.49;100.00;97189.09;5050444;28;20636;-45
2022/12/27 03:26:19;;;;;;;2.95;2.65;;;;;;;10.51;100.00;97202.19;5051858;28;20095;-38
2022/12/27 03:34:31;;;;;;;2.45;2.28;;;;;;;10.01;100.00;97241.31;5051287;28;20259;-40
2022/12/27 03:39:52;;;;;;;2.60;2.40;;;;;;;9.86;100.00;97244.22;5052685;28;20085;-43
2022/12/27 03:45:10;;;;;;;3.05;2.60;;;;;;;9.59;100.00;97270.06;5054219;28;20084;-38
2022/12/27 03:47:42;;;;;;;2.78;2.58;;;;;;;9.69;100.00;97276.31;5048617;28;20080;-39
2022/12/27 03:50:16;;;;;;;2.60;2.40;;;;;;;9.57;100.00;97279.91;5050446;28;20084;-38
2022/12/27 03:52:48;;;;;;;2.83;2.63;;;;;;;9.46;100.00;97285.97;5050868;28;20080;-39
2022/12/27 03:55:17;;;;;;;2.47;2.33;;;;;;;9.31;100.00;97301.13;5051624;28;20087;-42
2022/12/27 03:57:45;;;;;;;3.45;2.40;;;;;;;9.35;100.00;97305.22;5056587;28;20116;-45
2022/12/27 04:00:14;;;;;;;2.40;2.30;;;;;;;9.21;100.00;97308.88;5053314;28;20091;-42
2022/12/27 04:02:43;;;;;;;3.72;2.60;;;;;;;8.96;100.00;97309.88;5056423;28;20095;-39
2022/12/27 04:05:13;;;;;;;2.90;2.60;;;;;;;9.30;100.00;97317.06;5055609;28;20092;-45
2022/12/27 04:35:22;;;;;;;4.45;3.10;;;;;;;8.62;100.00;97379.03;5052039;28;20141;-40
2022/12/27 04:37:52;;;;;;;3.20;2.90;;;;;;;8.29;100.00;97373.41;5053562;28;20615;-38
2022/12/27 04:57:01;;;;;;;2.88;2.67;;;;;;;8.35;100.00;97387.88;5056445;28;20178;-38
2022/12/27 05:02:15;;;;;;;5.03;3.35;;;;;;;8.36;100.00;97394.81;5051792;28;20073;-39
2022/12/27 05:04:44;;;;;;;3.25;2.95;;;;;;;8.23;100.00;97396.66;5058726;28;20076;-39
2022/12/27 05:15:35;;;;;;;5.10;3.03;;;;;;;8.93;100.00;97415.31;5051272;28;20079;-37
2022/12/27 05:18:03;;;;;;;3.20;3.00;;;;;;;9.03;100.00;97421.59;5053079;28;20088;-39
2022/12/27 05:20:33;;;;;;;3.20;2.90;;;;;;;8.77;100.00;97412.97;5050297;28;20136;-37
2022/12/27 05:25:49;;;;;;;6.50;5.07;;;;;;;8.57;100.00;97426.69;5048502;28;21104;-39
2022/12/27 05:28:17;;;;;;;4.00;3.23;;;;;;;8.32;100.00;97422.28;5054928;28;20134;-41
2022/12/27 05:30:45;;;;;;;4.22;3.10;;;;;;;8.53;100.00;97428.72;5055063;28;20913;-38
2022/12/27 05:33:14;;;;;;;3.45;2.95;;;;;;;8.46;100.00;97424.81;5057597;28;20548;-40
2022/12/27 05:35:42;;;;;;;4.55;2.90;;;;;;;7.96;100.00;97431.75;5054416;28;20092;-38
2022/12/27 05:38:11;;;;;;;3.45;3.15;;;;;;;7.73;100.00;97428.03;5056961;28;20083;-40
2022/12/27 05:40:39;;;;;;;3.30;3.00;;;;;;;7.67;100.00;97436.31;5050716;28;20096;-39
2022/12/27 05:43:08;;;;;;;3.20;2.90;;;;;;;7.66;100.00;97439.91;5052057;28;20080;-40
2022/12/27 05:45:37;;;;;;;3.45;3.15;;;;;;;7.78;100.00;97446.13;5055664;28;20084;-41
2022/12/27 05:48:05;;;;;;;3.50;3.20;;;;;;;7.71;100.00;97444.84;5050923;28;20092;-37
2022/12/27 05:50:34;;;;;;;4.57;3.30;;;;;;;7.69;100.00;97444.13;5059572;28;20574;-44
2022/12/27 05:53:02;;;;;;;5.65;3.47;;;;;;;7.72;100.00;97450.00;5050335;28;20081;-42
2022/12/27 05:55:30;;;;;;;3.92;3.30;;;;;;;7.69;100.00;97450.19;5054363;28;20080;-40
2022/12/27 05:57:58;;;;;;;4.47;3.55;;;;;;;7.89;100.00;97459.38;5054937;28;20084;-39
2022/12/27 06:00:28;;;;;;;3.45;3.10;;;;;;;7.73;100.00;97458.72;5055523;28;20497;-39
2022/12/27 06:02:57;;;;;;;4.53;3.40;;;;;;;7.91;100.00;97456.63;5056727;28;20083;-44
2022/12/27 06:05:25;;;;;;;3.65;3.20;;;;;;;7.73;100.00;97454.31;5062793;28;20080;-41
2022/12/27 06:07:53;;;;;;;5.35;3.20;;;;;;;7.81;100.00;97465.16;5060416;28;20045;-41
2022/12/27 06:10:22;;;;;;;6.07;3.55;;;;;;;7.81;100.00;97466.91;5056743;28;20072;-39
2022/12/27 06:12:50;;;;;;;3.55;3.20;;;;;;;7.81;100.00;97459.91;5059866;28;20078;-40
2022/12/27 06:15:18;;;;;;;4.55;3.30;;;;;;;7.67;100.00;97464.38;5057253;28;20080;-46
2022/12/27 06:17:48;;;;;;;3.90;3.28;;;;;;;7.73;100.00;97461.34;5055915;28;20093;-42
2022/12/27 06:20:17;;;;;;;3.65;3.40;;;;;;;7.81;100.00;97462.53;5055939;28;20092;-38
2022/12/27 06:22:45;;;;;;;4.82;3.30;;;;;;;7.68;100.00;97455.56;5057242;28;20080;-43
2022/12/27 06:25:14;;;;;;;3.40;3.10;;;;;;;7.79;100.00;97458.31;5054923;28;20080;-42
2022/12/27 06:27:42;;;;;;;3.40;3.10;;;;;;;7.84;100.00;97456.19;5062459;28;20122;-41
2022/12/27 06:30:12;;;;;;;4.55;3.30;;;;;;;7.72;100.00;97454.41;5052216;28;20081;-37
2022/12/27 06:32:40;;;;;;;3.50;3.20;;;;;;;7.66;100.00;97466.16;5067391;28;20080;-39
2022/12/27 06:35:10;;;;;;;4.60;3.50;;;;;;;7.71;100.00;97469.34;5054193;28;20077;-42
2022/12/27 06:37:38;;;;;;;3.72;3.38;;;;;;;8.06;100.00;97471.38;5061130;28;20094;-42
2022/12/27 06:40:08;;;;;;;3.42;3.13;;;;;;;8.01;100.00;97474.28;5050765;28;20075;-41
2022/12/27 06:42:36;;;;;;;4.07;3.10;;;;;;;7.93;100.00;97473.97;5056074;28;20084;-49
2022/12/27 06:45:08;;;;;;;3.60;3.30;;;;;;;7.92;100.00;97476.72;5055669;28;20088;-46
2022/12/27 06:47:36;;;;;;;3.78;3.38;;;;;;;8.05;100.00;97480.19;5053821;28;20084;-39
2022/12/27 06:50:05;;;;;;;3.35;3.05;;;;;;;8.09;100.00;97481.69;5061081;28;20093;-40
2022/12/27 06:52:35;;;;;;;4.82;3.38;;;;;;;7.68;100.00;97484.44;5053144;28;20264;-43
2022/12/27 06:55:03;;;;;;;3.80;3.50;;;;;;;7.84;100.00;97485.09;5054192;28;20088;-41
2022/12/27 06:57:32;;;;;;;5.32;3.10;;;;;;;7.85;100.00;97479.75;5056055;28;20083;-41
2022/12/27 07:00:00;;;;;;;3.70;3.28;;;;;;;7.73;100.00;97477.09;5063209;28;20077;-40
2022/12/27 07:02:29;;;;;;;3.50;3.20;;;;;;;7.38;100.00;97483.72;5052482;28;20066;-39
2022/12/27 07:04:57;;;;;;;3.28;3.08;;;;;;;7.30;100.00;97472.88;5052785;28;20103;-45
2022/12/27 07:07:25;;;;;;;4.30;3.10;;;;;;;7.19;100.00;97474.50;5059802;28;20044;-44
2022/12/27 07:09:55;;;;;;;3.55;3.25;;;;;;;7.43;100.00;97475.53;5054510;28;20072;-39
2022/12/27 07:12:23;;;;;;;4.20;3.70;;;;;;;7.52;100.00;97484.59;5057966;28;20103;-47
2022/12/27 07:14:52;;;;;;;3.72;3.40;;;;;;;7.24;100.00;97494.25;5051318;28;20084;-41
2022/12/27 07:17:20;;;;;;;3.60;3.30;;;;;;;7.01;100.00;97489.63;5058342;28;20106;-39
2022/12/27 07:19:48;;;;;;;3.72;3.40;;;;;;;7.05;100.00;97491.13;5054253;28;20069;-38
2022/12/27 07:22:17;;;;;;;17.90;5.03;;;;;;;7.51;100.00;97490.81;5057815;28;20073;-42
2022/12/27 07:24:45;;;;;;;11.40;7.05;;;;;;;7.45;100.00;97499.06;5054309;28;20064;-39
2022/12/27 07:27:15;;;;;;;4.43;4.03;;;;;;;7.42;100.00;97496.63;5050285;28;20085;-38
2022/12/27 07:29:43;;;;;;;6.67;3.70;;;;;;;7.44;100.00;97506.09;5062498;28;20082;-40
2022/12/27 07:32:13;;;;;;;4.87;3.30;;;;;;;7.54;100.00;97498.47;5057174;28;20072;-43
2022/12/27 07:34:41;;;;;;;3.70;3.40;;;;;;;7.08;100.00;97510.13;5065101;28;20534;-39
2022/12/27 07:37:09;;;;;;;3.85;2.90;;;;;;;7.22;100.00;97508.41;5057493;28;20069;-40
2022/12/27 07:39:38;;;;;;;4.15;3.22;;;;;;;7.58;100.00;97507.84;5059020;28;20461;-39
2022/12/27 07:42:06;;;;;;;3.88;3.40;;;;;;;7.51;100.00;97512.63;5058704;28;20085;-39
2022/12/27 07:44:37;;;;;;;5.55;3.22;;;;;;;7.74;100.00;97503.25;5065979;28;20191;-45
2022/12/27 07:47:06;;;;;;;5.28;3.40;;;;;;;7.64;100.00;97502.19;5058970;28;20086;-41
2022/12/27 07:49:34;;;;;;;3.53;3.20;;;;;;;7.61;100.00;97505.84;5068994;28;20068;-38
2022/12/27 07:52:03;;;;;;;3.88;3.17;;;;;;;7.89;100.00;97500.56;5061990;28;20075;-40
2022/12/27 07:54:31;;;;;;;3.20;3.00;;;;;;;7.67;100.00;97501.97;5067507;28;20076;-44
2022/12/27 07:57:00;;;;;;;4.18;3.10;;;;;;;7.58;100.00;97511.28;5065956;28;20084;-42
2022/12/27 07:59:28;;;;;;;3.15;2.95;;;;;;;7.67;100.00;97503.75;5061620;28;20084;-40
2022/12/27 08:02:06;;;;;;;7.30;3.10;;;;;;;7.59;100.00;97510.34;5066271;28;20075;-40
2022/12/27 08:04:37;;;;;;;4.80;3.00;;;;;;;7.91;100.00;97503.91;5055618;28;20076;-40
2022/12/27 08:07:07;;;;;;;3.25;3.00;;;;;;;7.90;100.00;97504.88;5057032;28;20079;-39
2022/12/27 08:09:37;;;;;;;3.75;3.20;;;;;;;7.83;100.00;97505.25;5058857;28;20099;-44
2022/12/27 08:12:06;;;;;;;4.82;3.10;;;;;;;7.96;100.00;97507.91;5065550;28;20072;-38
2022/12/27 08:14:34;;;;;;;4.00;3.60;;;;;;;8.15;100.00;97510.13;5064468;28;20076;-43
2022/12/27 08:17:07;;;;;;;6.93;4.45;;;;;;;8.43;100.00;97509.16;5061463;28;20091;-42
2022/12/27 08:19:35;;;;;;;6.03;3.85;;;;;;;8.40;100.00;97519.88;5060200;28;20079;-44
2022/12/27 08:22:05;;;;;;;5.75;3.72;;;;;;;8.59;100.00;97518.59;5059815;28;20110;-42
2022/12/27 08:24:33;;;;;;;4.38;3.85;;;;;;;8.13;100.00;97511.22;5064297;28;20063;-42
2022/12/27 08:27:01;;;;;;;6.07;4.05;;;;;;;8.63;100.00;97514.81;5064621;28;20048;-45
2022/12/27 08:29:30;;;;;;;5.32;3.60;;;;;;;8.45;100.00;97512.50;5064567;28;20060;-39
2022/12/27 08:31:58;;;;;;;5.40;3.58;;;;;;;9.03;100.00;97508.44;5059107;28;20068;-41
2022/12/27 08:34:28;;;;;;;5.90;3.40;;;;;;;8.99;100.00;97506.13;5066712;28;20095;-40
2022/12/27 08:36:56;;;;;;;4.75;3.53;;;;;;;9.13;100.00;97510.41;5061121;28;20080;-44
2022/12/27 08:39:25;;;;;;;6.35;3.38;;;;;;;9.15;100.00;97514.63;5061472;28;20071;-39
2022/12/27 08:41:53;;;;;;;4.32;3.50;;;;;;;9.18;100.00;97516.19;5055290;28;20505;-40
2022/12/27 08:44:22;;;;;;;6.32;3.55;;;;;;;9.62;100.00;97509.47;5060698;28;20084;-46
2022/12/27 08:46:51;;;;;;;3.53;3.22;;;;;;;9.51;100.00;97513.75;5053559;28;20080;-39
2022/12/27 08:49:19;;;;;;;3.80;3.38;;;;;;;9.19;100.00;97528.41;5051910;28;20064;-40
2022/12/27 08:51:50;;;;;;;3.97;3.55;;;;;;;9.78;100.00;97525.00;5050851;28;20087;-43
2022/12/27 08:54:18;;;;;;;3.22;3.00;;;;;;;9.80;100.00;97528.34;5051429;28;20708;-44
2022/12/27 08:56:46;;;;;;;4.18;3.20;;;;;;;10.04;100.00;97538.88;5056092;28;20198;-43
2022/12/27 08:59:15;;;;;;;4.97;2.92;;;;;;;10.18;100.00;97534.22;5066606;28;20118;-39
2022/12/27 09:01:43;;;;;;;3.75;2.80;;;;;;;9.95;100.00;97541.25;5060971;28;20084;-41
2022/12/27 09:04:11;;;;;;;4.65;2.80;;;;;;;10.37;100.00;97538.16;5067797;28;20183;-46
2022/12/27 09:06:41;;;;;;;5.97;3.08;;;;;;;10.27;100.00;97532.75;5056156;28;20088;-41
2022/12/27 09:09:10;;;;;;;3.38;2.95;;;;;;;10.49;100.00;97536.38;5062709;28;20536;-41
2022/12/27 09:11:39;;;;;;;3.10;2.90;;;;;;;10.41;100.00;97542.25;5053587;28;20512;-40
2022/12/27 09:14:07;;;;;;;4.50;2.70;;;;;;;10.73;100.00;97536.28;5058801;28;20081;-43
2022/12/27 09:16:35;;;;;;;2.80;2.60;;;;;;;10.94;98.63;97531.97;5067141;28;20092;-40
2022/12/27 09:19:04;;;;;;;4.38;3.30;;;;;;;11.09;97.15;97533.41;5052836;28;20087;-39
2022/12/27 09:21:33;;;;;;;4.22;3.50;;;;;;;11.18;97.50;97534.47;5051304;28;20088;-40
2022/12/27 09:24:02;;;;;;;7.22;5.22;;;;;;;11.32;97.03;97538.66;5056715;28;20072;-43
2022/12/27 09:26:32;;;;;;;3.72;3.30;;;;;;;11.10;99.89;97550.91;5052482;28;20087;-38
2022/12/27 09:29:01;;;;;;;3.57;3.07;;;;;;;10.60;100.00;97560.16;5060701;28;20084;-40
2022/12/27 09:31:29;;;;;;;3.33;3.05;;;;;;;11.12;100.00;97553.44;5050819;28;20502;-44
2022/12/27 09:33:58;;;;;;;4.32;3.10;;;;;;;11.10;100.00;97553.56;5050703;28;20084;-38
2022/12/27 09:36:27;;;;;;;3.10;2.80;;;;;;;11.31;100.00;97558.09;5055905;28;20092;-42
2022/12/27 09:38:57;;;;;;;3.70;3.40;;;;;;;11.06;100.00;97557.41;5060851;28;20079;-37
2022/12/27 09:41:37;;;;;;;3.83;3.25;;;;;;;11.38;100.00;97556.66;5063894;28;20095;-39
2022/12/27 09:44:30;;;;;;;3.77;3.40;;;;;;;10.65;100.00;97553.53;5054416;28;20103;-43
2022/12/27 09:47:04;;;;;;;5.05;3.10;;;;;;;11.11;100.00;97555.25;5060133;28;20509;-40
2022/12/27 09:49:37;;;;;;;3.50;3.20;;;;;;;10.69;100.00;97540.94;5050877;28;20089;-38
2022/12/27 09:52:10;;;;;;;4.38;3.35;;;;;;;10.56;100.00;97543.69;5060155;28;20087;-39
2022/12/27 09:54:51;;;;;;;5.30;3.47;;;;;;;10.79;100.00;97538.44;5057264;28;20579;-38
2022/12/27 09:57:22;;;;;;;;;;;;;;;10.85;100.00;97541.44;5059949;28;20071;-41
2022/12/27 09:59:55;;;;;;;4.57;2.90;;;;;;;10.68;100.00;97536.66;5056057;28;19960;-38
2022/12/27 10:02:24;;;;;;;6.25;2.80;;;;;;;10.77;100.00;97530.66;5063910;28;20547;-41
2022/12/27 10:04:55;;;;;;;2.70;2.50;;;;;;;10.72;100.00;97538.09;5056709;28;20072;-42
2022/12/27 10:07:49;;;;;;;2.80;2.60;;;;;;;10.79;100.00;97534.00;5057163;28;20083;-39
2022/12/27 10:10:25;;;;;;;5.20;3.00;;;;;;;11.09;100.00;97524.66;5051818;28;20080;-42
2022/12/27 10:13:08;;;;;;;4.88;2.70;;;;;;;10.97;100.00;97526.44;5060220;28;20135;-38
2022/12/27 10:15:42;;;;;;;4.28;2.95;;;;;;;11.04;100.00;97521.53;5056943;28;20076;-40
2022/12/27 10:18:18;;;;;;;3.63;2.78;;;;;;;11.17;98.20;97523.06;5050764;28;20092;-45
2022/12/27 10:20:55;;;;;;;3.10;2.70;;;;;;;11.12;100.00;97521.78;5062420;28;20092;-38
2022/12/27 10:23:25;;;;;;;4.28;2.80;;;;;;;11.08;94.12;97501.84;5052286;28;20088;-39
2022/12/27 10:25:59;;;;;;;3.08;2.88;;;;;;;11.15;85.66;97498.59;5055957;28;20088;-38
2022/12/27 10:28:36;;;;;;;3.03;2.58;;;;;;;11.07;83.97;97498.34;5059168;28;20094;-42
2022/12/27 10:31:05;;;;;;;2.70;2.35;;;;;;;10.79;80.60;97509.41;5060157;28;20044;-46
2022/12/27 10:33:34;;;;;;;2.60;2.40;;;;;;;11.05;76.57;97512.66;5060586;28;20533;-45
2022/12/27 10:36:09;;;;;;;5.25;2.80;;;;;;;11.33;76.22;97492.81;5054815;28;20151;-37
2022/12/27 10:38:37;;;;;;;3.85;2.50;;;;;;;11.67;73.25;97512.03;5065160;28;20120;-37
2022/12/27 10:41:18;;;;;;;4.20;2.58;;;;;;;11.56;76.50;97507.63;5053828;28;20420;-37
2022/12/27 10:43:51;;;;;;;3.42;2.53;;;;;;;11.14;67.54;97506.63;5056101;28;20091;-42
2022/12/27 10:46:22;;;;;;;2.60;2.40;;;;;;;11.38;69.31;97509.09;5055882;28;20476;-39
2022/12/27 10:48:59;;;;;;;2.40;2.20;;;;;;;11.41;72.55;97506.22;5052768;28;20088;-43
2022/12/27 10:51:48;;;;;;;2.38;2.17;;;;;;;11.45;74.92;97502.38;5050494;28;20134;-40
2022/12/27 10:54:20;;;;;;;2.22;2.10;;;;;;;11.51;66.40;97503.69;5054164;28;20095;-37
2022/12/27 10:56:49;;;;;;;3.40;2.35;;;;;;;11.56;70.31;97502.34;5062941;28;20485;-37
2022/12/27 10:59:20;;;;;;;2.40;2.10;;;;;;;11.52;75.90;97508.81;5055182;28;20126;-44
2022/12/27 11:01:50;;;;;;;2.50;2.30;;;;;;;11.71;75.88;97500.25;5054774;28;20111;-37
2022/12/27 11:04:20;;;;;;;2.22;2.03;;;;;;;11.69;65.28;97507.44;5056831;28;20080;-38
2022/12/27 11:06:51;;;;;;;2.60;2.40;;;;;;;12.31;64.18;97492.63;5057149;28;20080;-39
2022/12/27 11:09:29;;;;;;;;;;;;;;;12.24;60.48;97494.97;5058564;28;20541;-38
2022/12/27 11:12:17;;;;;;;3.05;2.10;;;;;;;12.24;56.92;97496.78;5053902;28;19968;-41
2022/12/27 11:14:58;;;;;;;2.47;2.08;;;;;;;11.75;61.80;97496.38;5058921;28;20088;-43
2022/12/27 11:17:29;;;;;;;2.05;1.95;;;;;;;11.20;64.39;97500.03;5056722;28;20095;-37
2022/12/27 11:19:58;;;;;;;2.33;2.13;;;;;;;11.56;59.03;97491.78;5059118;28;20087;-37
2022/12/27 11:22:27;;;;;;;2.85;2.20;;;;;;;11.48;58.65;97491.56;5057994;28;20084;-38
2022/12/27 11:24:57;;;;;;;2.30;2.17;;;;;;;11.50;62.29;97496.72;5055073;28;20076;-38
2022/12/27 11:27:27;;;;;;;5.18;2.08;;;;;;;11.26;59.92;97486.34;5053627;28;20076;-38
2022/12/27 11:29:58;;;;;;;3.13;2.10;;;;;;;11.27;59.36;97496.78;5061284;28;20103;-40
2022/12/27 11:32:27;;;;;;;2.10;2.00;;;;;;;11.19;61.63;97496.56;5056406;28;20068;-43
2022/12/27 11:34:56;;;;;;;2.47;2.28;;;;;;;11.34;66.49;97487.38;5060333;28;20092;-39
2022/12/27 11:37:26;;;;;;;2.20;2.10;;;;;;;11.41;62.91;97483.28;5062372;28;20107;-41
2022/12/27 11:39:55;;;;;;;2.38;2.17;;;;;;;11.13;61.03;97482.03;5053655;28;20052;-39
2022/12/27 11:42:31;;;;;;;2.67;2.20;;;;;;;11.78;59.08;97475.00;5064027;28;20080;-43
2022/12/27 11:45:06;;;;;;;2.10;2.00;;;;;;;11.75;57.56;97482.34;5055737;28;20638;-37
2022/12/27 11:47:39;;;;;;;4.70;2.10;;;;;;;11.47;59.56;97471.41;5066669;28;20103;-42
2022/12/27 11:50:25;;;;;;;4.18;2.50;;;;;;;11.75;60.20;97480.53;5058288;28;20539;-38
2022/12/27 11:53:16;;;;;;;3.10;1.92;;;;;;;11.93;60.99;97482.63;5062423;28;20072;-39
2022/12/27 11:56:19;;;;;;;2.20;2.00;;;;;;;12.03;57.16;97479.09;5059177;28;20131;-41
2022/12/27 11:59:10;;;;;;;4.53;2.10;;;;;;;12.40;56.75;97470.69;5059807;28;20075;-43
2022/12/27 12:02:07;;;;;;;1.90;1.80;;;;;;;12.41;57.45;97472.38;5057413;28;20532;-43
2022/12/27 12:05:03;;;;;;;2.10;1.90;;;;;;;12.07;56.89;97467.28;5055382;28;20552;-41
2022/12/27 12:07:47;;;;;;;2.30;1.88;;;;;;;12.36;56.90;97461.34;5053580;28;20053;-40
2022/12/27 12:10:24;;;;;;;5.15;2.03;;;;;;;12.55;54.97;97457.97;5059108;28;20088;-38
2022/12/27 12:13:09;;;;;;;2.58;1.80;;;;;;;12.52;55.41;97447.63;5057186;28;20104;-38
2022/12/27 12:15:49;;;;;;;2.60;1.90;;;;;;;11.95;52.83;97452.47;5053634;28;20084;-37
2022/12/27 12:18:34;;;;;;;3.08;1.80;;;;;;;11.81;54.68;97458.88;5068477;28;20087;-41
2022/12/27 12:21:21;;;;;;;2.17;1.95;;;;;;;11.80;54.87;97449.28;5062346;28;20452;-39
2022/12/27 12:24:24;;;;;;;2.00;1.80;;;;;;;12.20;56.90;97448.59;5066875;28;20103;-37
2022/12/27 12:27:05;;;;;;;2.65;1.80;;;;;;;11.71;53.12;97449.22;5040370;28;20083;-39
2022/12/27 12:29:46;;;;;;;2.20;2.00;;;;;;;11.69;53.27;97446.69;5055770;28;20073;-44
2022/12/27 12:32:24;;;;;;;2.97;2.08;;;;;;;11.84;55.23;97441.97;5057720;28;20081;-41
2022/12/27 12:35:15;;;;;;;4.10;2.00;;;;;;;12.35;53.50;97447.31;5064821;28;20496;-40
2022/12/27 12:38:02;;;;;;;2.13;2.03;;;;;;;11.93;55.74;97448.28;5062407;28;20552;-39
2022/12/27 12:40:52;;;;;;;2.50;2.00;;;;;;;11.99;57.28;97448.59;5055727;28;20088;-38
2022/12/27 12:43:34;;;;;;;2.10;1.90;;;;;;;11.98;56.20;97443.47;5067526;28;20145;-43
2022/12/27 12:46:13;;;;;;;2.72;1.83;;;;;;;12.04;61.21;97435.84;5066243;28;20483;-42
2022/12/27 12:49:04;;;;;;;1.90;1.80;;;;;;;11.96;56.85;97440.09;5058071;28;20442;-38
2022/12/27 12:52:00;;;;;;;2.08;1.90;;;;;;;11.52;57.50;97450.72;5059279;28;20081;-39
2022/12/27 12:54:47;;;;;;;3.00;2.17;;;;;;;11.83;59.54;97451.66;5057411;28;20081;-37
2022/12/27 12:57:25;;;;;;;2.55;1.90;;;;;;;11.67;64.27;97443.34;5058156;28;20045;-41
2022/12/27 13:00:07;;;;;;;3.92;2.22;;;;;;;11.83;62.95;97443.72;5062561;28;20088;-39
2022/12/27 13:03:12;;;;;;;2.55;1.80;;;;;;;11.59;64.65;97443.13;5065427;28;20095;-42
2022/12/27 13:05:45;;;;;;;1.80;1.70;;;;;;;11.21;63.91;97441.81;5053849;28;20592;-37
2022/12/27 13:08:23;;;;;;;2.20;1.85;;;;;;;11.35;65.82;97430.13;5054402;28;20085;-41
2022/12/27 13:11:13;;;;;;;2.97;1.98;;;;;;;11.43;66.60;97433.00;5054722;28;20092;-38
2022/12/27 13:13:53;;;;;;;2.85;2.03;;;;;;;11.53;69.45;97433.91;5065005;28;20091;-38
2022/12/27 13:16:28;;;;;;;2.08;1.90;;;;;;;11.95;64.04;97436.63;5057086;28;20088;-41
2022/12/27 13:19:06;;;;;;;2.42;2.00;;;;;;;11.97;61.48;97432.00;5060450;28;20080;-40
2022/12/27 13:21:51;;;;;;;2.30;2.10;;;;;;;11.58;65.01;97437.00;5059416;28;20088;-43
2022/12/27 13:24:27;;;;;;;2.83;2.08;;;;;;;11.85;62.12;97427.78;5066579;28;20076;-40
2022/12/27 13:27:02;;;;;;;3.40;1.88;;;;;;;11.82;63.59;97426.19;5061872;28;20538;-39
2022/12/27 13:29:55;;;;;;;4.13;1.80;;;;;;;11.78;65.90;97429.22;5059500;28;20528;-44
2022/12/27 13:32:40;;;;;;;2.45;2.00;;;;;;;12.05;64.98;97415.53;5058763;28;20049;-40
2022/12/27 13:35:24;;;;;;;2.20;2.00;;;;;;;12.02;65.73;97416.63;5064309;28;20182;-41
2022/12/27 13:38:01;;;;;;;3.15;2.03;;;;;;;11.81;64.49;97413.97;5055577;28;20088;-39
2022/12/27 13:40:46;;;;;;;1.90;1.80;;;;;;;11.80;69.77;97406.13;5065886;28;20087;-40
2022/12/27 13:43:36;;;;;;;2.63;1.80;;;;;;;11.73;65.51;97404.97;5070345;28;20084;-39
2022/12/27 13:46:16;;;;;;;2.20;2.00;;;;;;;12.02;64.64;97399.94;5052918;28;20088;-41